sensor_id;sensor_type;location;lat;lon;timestamp;P1;durP1;ratioP1;P2;durP2;ratioP2
15506;SDS011;7855;52.210;5.982;2022-08-16T00:02:45;9;;;4;;
15506;SDS011;7855;52.210;5.982;2022-08-16T00:02:45;8;;;4;;
15506;SDS011;7855;52.210;5.982;2022-08-16T00:04:42;7;;;4;;
15506;SDS011;7855;52.210;5.982;2022-08-16T00:06:56;8;;;4;;
15506;SDS011;7855;52.210;5.982;2022-08-16T00:09:10;10;;;4;;
15506;SDS011;7855;52.210;5.982;2022-08-16T00:11:25;13;;;5;;
15506;SDS011;7855;52.210;5.982;2022-08-16T00:13:39;9;;;4;;
15506;SDS011;7855;52.210;5.982;2022-08-16T00:15:54;7;;;3;;
15506;SDS011;7855;52.210;5.982;2022-08-16T00:18:09;8;;;4;;
15506;SDS011;7855;52.210;5.982;2022-08-16T00:20:23;8;;;4;;
15506;SDS011;7855;52.210;5.982;2022-08-16T00:22:38;7;;;4;;
15506;SDS011;7855;52.210;5.982;2022-08-16T00:24:52;9;;;4;;
15506;SDS011;7855;52.210;5.982;2022-08-16T00:27:06;7;;;4;;
15506;SDS011;7855;52.210;5.982;2022-08-16T00:29:21;10;;;5;;
15506;SDS011;7855;52.210;5.982;2022-08-16T00:31:35;7;;;4;;
15506;SDS011;7855;52.210;5.982;2022-08-16T00:33:50;7;;;4;;
15506;SDS011;7855;52.210;5.982;2022-08-16T00:36:04;13;;;4;;
15506;SDS011;7855;52.210;5.982;2022-08-16T00:38:19;12;;;4;;
15506;SDS011;7855;52.210;5.982;2022-08-16T00:40:36;9;;;4;;
15506;SDS011;7855;52.210;5.982;2022-08-16T00:42:47;8;;;4;;
15506;SDS011;7855;52.210;5.982;2022-08-16T00:45:05;6;;;4;;
15506;SDS011;7855;52.210;5.982;2022-08-16T00:47:16;10;;;4;;
15506;SDS011;7855;52.210;5.982;2022-08-16T00:49:31;7;;;4;;
15506;SDS011;7855;52.210;5.982;2022-08-16T00:51:45;9;;;5;;
15506;SDS011;7855;52.210;5.982;2022-08-16T00:54:00;8;;;4;;
15506;SDS011;7855;52.210;5.982;2022-08-16T00:56:16;6;;;4;;
15506;SDS011;7855;52.210;5.982;2022-08-16T00:58:29;9;;;6;;
15506;SDS011;7855;52.210;5.982;2022-08-16T01:00:44;13;;;4;;
15506;SDS011;7855;52.210;5.982;2022-08-16T01:02:58;9;;;5;;
15506;SDS011;7855;52.210;5.982;2022-08-16T01:05:12;9;;;4;;
15506;SDS011;7855;52.210;5.982;2022-08-16T01:07:26;7;;;5;;
15506;SDS011;7855;52.210;5.982;2022-08-16T01:09:41;11;;;4;;
15506;SDS011;7855;52.210;5.982;2022-08-16T01:11:55;13;;;5;;
15506;SDS011;7855;52.210;5.982;2022-08-16T01:14:12;9;;;5;;
15506;SDS011;7855;52.210;5.982;2022-08-16T01:16:25;9;;;5;;
15506;SDS011;7855;52.210;5.982;2022-08-16T01:18:40;8;;;4;;
15506;SDS011;7855;52.210;5.982;2022-08-16T01:20:55;9;;;4;;
15506;SDS011;7855;52.210;5.982;2022-08-16T01:23:09;6;;;4;;
15506;SDS011;7855;52.210;5.982;2022-08-16T01:25:23;10;;;6;;
15506;SDS011;7855;52.210;5.982;2022-08-16T01:27:37;12;;;6;;
15506;SDS011;7855;52.210;5.982;2022-08-16T01:29:56;12;;;6;;
15506;SDS011;7855;52.210;5.982;2022-08-16T01:32:04;11;;;6;;
15506;SDS011;7855;52.210;5.982;2022-08-16T01:34:19;19;;;5;;
15506;SDS011;7855;52.210;5.982;2022-08-16T01:36:34;10;;;6;;
15506;SDS011;7855;52.210;5.982;2022-08-16T01:38:48;12;;;6;;
15506;SDS011;7855;52.210;5.982;2022-08-16T01:41:03;7;;;4;;
15506;SDS011;7855;52.210;5.982;2022-08-16T01:43:17;12;;;4;;
15506;SDS011;7855;52.210;5.982;2022-08-16T01:45:31;11;;;5;;
15506;SDS011;7855;52.210;5.982;2022-08-16T01:47:47;11;;;6;;
15506;SDS011;7855;52.210;5.982;2022-08-16T01:50:00;9;;;5;;
15506;SDS011;7855;52.210;5.982;2022-08-16T01:52:15;10;;;6;;
15506;SDS011;7855;52.210;5.982;2022-08-16T01:54:29;15;;;5;;
15506;SDS011;7855;52.210;5.982;2022-08-16T01:56:43;11;;;6;;
15506;SDS011;7855;52.210;5.982;2022-08-16T01:58:58;9;;;5;;
15506;SDS011;7855;52.210;5.982;2022-08-16T02:01:12;14;;;6;;
15506;SDS011;7855;52.210;5.982;2022-08-16T02:03:26;10;;;5;;
15506;SDS011;7855;52.210;5.982;2022-08-16T02:05:41;9;;;5;;
15506;SDS011;7855;52.210;5.982;2022-08-16T02:07:55;14;;;5;;
15506;SDS011;7855;52.210;5.982;2022-08-16T02:10:10;9;;;5;;
15506;SDS011;7855;52.210;5.982;2022-08-16T02:12:24;10;;;5;;
15506;SDS011;7855;52.210;5.982;2022-08-16T02:14:39;9;;;6;;
15506;SDS011;7855;52.210;5.982;2022-08-16T02:19:08;11;;;5;;
15506;SDS011;7855;52.210;5.982;2022-08-16T02:21:22;8;;;5;;
15506;SDS011;7855;52.210;5.982;2022-08-16T02:23:37;12;;;6;;
15506;SDS011;7855;52.210;5.982;2022-08-16T02:25:51;8;;;5;;
15506;SDS011;7855;52.210;5.982;2022-08-16T02:28:06;11;;;5;;
15506;SDS011;7855;52.210;5.982;2022-08-16T02:30:21;8;;;5;;
15506;SDS011;7855;52.210;5.982;2022-08-16T02:32:35;11;;;6;;
15506;SDS011;7855;52.210;5.982;2022-08-16T02:34:49;8;;;6;;
15506;SDS011;7855;52.210;5.982;2022-08-16T02:37:03;10;;;6;;
15506;SDS011;7855;52.210;5.982;2022-08-16T02:39:18;11;;;6;;
15506;SDS011;7855;52.210;5.982;2022-08-16T02:41:33;12;;;6;;
15506;SDS011;7855;52.210;5.982;2022-08-16T02:43:46;9;;;6;;
15506;SDS011;7855;52.210;5.982;2022-08-16T02:46:02;8;;;5;;
15506;SDS011;7855;52.210;5.982;2022-08-16T02:48:16;9;;;6;;
15506;SDS011;7855;52.210;5.982;2022-08-16T02:50:30;12;;;5;;
15506;SDS011;7855;52.210;5.982;2022-08-16T02:52:45;12;;;6;;
15506;SDS011;7855;52.210;5.982;2022-08-16T02:54:59;10;;;5;;
15506;SDS011;7855;52.210;5.982;2022-08-16T02:57:14;8;;;5;;
15506;SDS011;7855;52.210;5.982;2022-08-16T02:59:28;8;;;5;;
15506;SDS011;7855;52.210;5.982;2022-08-16T03:01:42;14;;;6;;
15506;SDS011;7855;52.210;5.982;2022-08-16T03:03:57;9;;;6;;
15506;SDS011;7855;52.210;5.982;2022-08-16T03:06:11;10;;;5;;
15506;SDS011;7855;52.210;5.982;2022-08-16T03:08:25;13;;;6;;
15506;SDS011;7855;52.210;5.982;2022-08-16T03:10:40;8;;;6;;
15506;SDS011;7855;52.210;5.982;2022-08-16T03:12:55;11;;;6;;
15506;SDS011;7855;52.210;5.982;2022-08-16T03:15:10;13;;;6;;
15506;SDS011;7855;52.210;5.982;2022-08-16T03:17:24;10;;;6;;
15506;SDS011;7855;52.210;5.982;2022-08-16T03:19:38;15;;;6;;
15506;SDS011;7855;52.210;5.982;2022-08-16T03:21:52;11;;;7;;
15506;SDS011;7855;52.210;5.982;2022-08-16T03:24:07;19;;;6;;
15506;SDS011;7855;52.210;5.982;2022-08-16T03:26:21;13;;;7;;
15506;SDS011;7855;52.210;5.982;2022-08-16T03:28:35;9;;;5;;
15506;SDS011;7855;52.210;5.982;2022-08-16T03:30:50;9;;;5;;
15506;SDS011;7855;52.210;5.982;2022-08-16T03:33:05;10;;;6;;
15506;SDS011;7855;52.210;5.982;2022-08-16T03:35:20;11;;;6;;
15506;SDS011;7855;52.210;5.982;2022-08-16T03:37:33;15;;;6;;
15506;SDS011;7855;52.210;5.982;2022-08-16T03:42:03;13;;;5;;
15506;SDS011;7855;52.210;5.982;2022-08-16T03:44:17;12;;;7;;
15506;SDS011;7855;52.210;5.982;2022-08-16T03:46:31;11;;;7;;
15506;SDS011;7855;52.210;5.982;2022-08-16T03:48:45;9;;;6;;
15506;SDS011;7855;52.210;5.982;2022-08-16T03:50:59;17;;;7;;
15506;SDS011;7855;52.210;5.982;2022-08-16T03:53:14;12;;;6;;
15506;SDS011;7855;52.210;5.982;2022-08-16T03:55:28;10;;;6;;
15506;SDS011;7855;52.210;5.982;2022-08-16T03:57:43;13;;;6;;
15506;SDS011;7855;52.210;5.982;2022-08-16T03:59:57;12;;;6;;
15506;SDS011;7855;52.210;5.982;2022-08-16T04:02:12;15;;;7;;
15506;SDS011;7855;52.210;5.982;2022-08-16T04:04:26;11;;;6;;
15506;SDS011;7855;52.210;5.982;2022-08-16T04:06:40;10;;;5;;
15506;SDS011;7855;52.210;5.982;2022-08-16T04:08:55;17;;;6;;
15506;SDS011;7855;52.210;5.982;2022-08-16T04:11:09;10;;;5;;
15506;SDS011;7855;52.210;5.982;2022-08-16T04:13:24;17;;;6;;
15506;SDS011;7855;52.210;5.982;2022-08-16T04:15:38;10;;;6;;
15506;SDS011;7855;52.210;5.982;2022-08-16T04:17:53;10;;;5;;
15506;SDS011;7855;52.210;5.982;2022-08-16T04:20:08;11;;;7;;
15506;SDS011;7855;52.210;5.982;2022-08-16T04:22:22;13;;;6;;
15506;SDS011;7855;52.210;5.982;2022-08-16T04:24:36;14;;;6;;
15506;SDS011;7855;52.210;5.982;2022-08-16T04:26:50;15;;;8;;
15506;SDS011;7855;52.210;5.982;2022-08-16T04:29:05;9;;;5;;
15506;SDS011;7855;52.210;5.982;2022-08-16T04:33:34;11;;;7;;
15506;SDS011;7855;52.210;5.982;2022-08-16T04:35:48;11;;;6;;
15506;SDS011;7855;52.210;5.982;2022-08-16T04:38:03;11;;;7;;
15506;SDS011;7855;52.210;5.982;2022-08-16T04:40:18;12;;;7;;
15506;SDS011;7855;52.210;5.982;2022-08-16T04:42:32;14;;;7;;
15506;SDS011;7855;52.210;5.982;2022-08-16T04:44:46;14;;;8;;
15506;SDS011;7855;52.210;5.982;2022-08-16T04:47:01;12;;;6;;
15506;SDS011;7855;52.210;5.982;2022-08-16T04:49:15;9;;;6;;
15506;SDS011;7855;52.210;5.982;2022-08-16T04:51:29;12;;;7;;
15506;SDS011;7855;52.210;5.982;2022-08-16T04:53:44;11;;;6;;
15506;SDS011;7855;52.210;5.982;2022-08-16T04:55:58;14;;;7;;
15506;SDS011;7855;52.210;5.982;2022-08-16T04:58:13;13;;;8;;
15506;SDS011;7855;52.210;5.982;2022-08-16T05:00:28;13;;;7;;
15506;SDS011;7855;52.210;5.982;2022-08-16T05:02:42;11;;;7;;
15506;SDS011;7855;52.210;5.982;2022-08-16T05:04:56;17;;;8;;
15506;SDS011;7855;52.210;5.982;2022-08-16T05:07:10;16;;;8;;
15506;SDS011;7855;52.210;5.982;2022-08-16T05:09:25;13;;;8;;
15506;SDS011;7855;52.210;5.982;2022-08-16T05:11:39;12;;;8;;
15506;SDS011;7855;52.210;5.982;2022-08-16T05:13:54;14;;;9;;
15506;SDS011;7855;52.210;5.982;2022-08-16T05:16:10;20;;;8;;
15506;SDS011;7855;52.210;5.982;2022-08-16T05:18:23;17;;;8;;
15506;SDS011;7855;52.210;5.982;2022-08-16T05:20:37;15;;;9;;
15506;SDS011;7855;52.210;5.982;2022-08-16T05:22:52;15;;;9;;
15506;SDS011;7855;52.210;5.982;2022-08-16T05:25:06;15;;;9;;
15506;SDS011;7855;52.210;5.982;2022-08-16T05:27:21;14;;;9;;
15506;SDS011;7855;52.210;5.982;2022-08-16T05:29:35;16;;;11;;
15506;SDS011;7855;52.210;5.982;2022-08-16T05:31:50;17;;;11;;
15506;SDS011;7855;52.210;5.982;2022-08-16T05:34:04;19;;;12;;
15506;SDS011;7855;52.210;5.982;2022-08-16T05:36:18;16;;;11;;
15506;SDS011;7855;52.210;5.982;2022-08-16T05:38:33;18;;;11;;
15506;SDS011;7855;52.210;5.982;2022-08-16T05:40:47;24;;;11;;
15506;SDS011;7855;52.210;5.982;2022-08-16T05:43:02;19;;;12;;
15506;SDS011;7855;52.210;5.982;2022-08-16T05:45:16;17;;;11;;
15506;SDS011;7855;52.210;5.982;2022-08-16T05:47:31;19;;;12;;
15506;SDS011;7855;52.210;5.982;2022-08-16T05:49:45;19;;;11;;
15506;SDS011;7855;52.210;5.982;2022-08-16T05:52:00;17;;;12;;
15506;SDS011;7855;52.210;5.982;2022-08-16T05:54:14;25;;;12;;
15506;SDS011;7855;52.210;5.982;2022-08-16T05:56:28;19;;;12;;
15506;SDS011;7855;52.210;5.982;2022-08-16T05:58:43;21;;;13;;
15506;SDS011;7855;52.210;5.982;2022-08-16T06:00:57;22;;;13;;
15506;SDS011;7855;52.210;5.982;2022-08-16T06:03:12;20;;;14;;
15506;SDS011;7855;52.210;5.982;2022-08-16T06:05:26;19;;;13;;
15506;SDS011;7855;52.210;5.982;2022-08-16T06:07:41;21;;;13;;
15506;SDS011;7855;52.210;5.982;2022-08-16T06:09:55;18;;;12;;
15506;SDS011;7855;52.210;5.982;2022-08-16T06:12:10;22;;;13;;
15506;SDS011;7855;52.210;5.982;2022-08-16T06:14:23;17;;;13;;
15506;SDS011;7855;52.210;5.982;2022-08-16T06:16:38;18;;;12;;
15506;SDS011;7855;52.210;5.982;2022-08-16T06:18:52;21;;;13;;
15506;SDS011;7855;52.210;5.982;2022-08-16T06:21:06;18;;;12;;
15506;SDS011;7855;52.210;5.982;2022-08-16T06:23:21;18;;;13;;
15506;SDS011;7855;52.210;5.982;2022-08-16T06:25:35;16;;;12;;
15506;SDS011;7855;52.210;5.982;2022-08-16T06:27:50;20;;;13;;
15506;SDS011;7855;52.210;5.982;2022-08-16T06:30:05;17;;;12;;
15506;SDS011;7855;52.210;5.982;2022-08-16T06:32:19;27;;;13;;
15506;SDS011;7855;52.210;5.982;2022-08-16T06:34:32;17;;;11;;
15506;SDS011;7855;52.210;5.982;2022-08-16T06:36:47;19;;;12;;
15506;SDS011;7855;52.210;5.982;2022-08-16T06:39:01;19;;;15;;
15506;SDS011;7855;52.210;5.982;2022-08-16T06:41:16;21;;;14;;
15506;SDS011;7855;52.210;5.982;2022-08-16T06:43:30;23;;;13;;
15506;SDS011;7855;52.210;5.982;2022-08-16T06:45:45;26;;;14;;
15506;SDS011;7855;52.210;5.982;2022-08-16T06:47:59;19;;;13;;
15506;SDS011;7855;52.210;5.982;2022-08-16T06:50:13;23;;;13;;
15506;SDS011;7855;52.210;5.982;2022-08-16T06:52:28;20;;;13;;
15506;SDS011;7855;52.210;5.982;2022-08-16T06:54:42;19;;;13;;
15506;SDS011;7855;52.210;5.982;2022-08-16T06:56:57;21;;;14;;
15506;SDS011;7855;52.210;5.982;2022-08-16T06:59:11;19;;;12;;
15506;SDS011;7855;52.210;5.982;2022-08-16T07:01:26;22;;;14;;
15506;SDS011;7855;52.210;5.982;2022-08-16T07:03:40;21;;;15;;
15506;SDS011;7855;52.210;5.982;2022-08-16T07:05:54;25;;;14;;
15506;SDS011;7855;52.210;5.982;2022-08-16T07:08:09;21;;;13;;
15506;SDS011;7855;52.210;5.982;2022-08-16T07:10:24;19;;;14;;
15506;SDS011;7855;52.210;5.982;2022-08-16T07:12:38;20;;;15;;
15506;SDS011;7855;52.210;5.982;2022-08-16T07:14:52;21;;;14;;
15506;SDS011;7855;52.210;5.982;2022-08-16T07:19:21;21;;;14;;
15506;SDS011;7855;52.210;5.982;2022-08-16T07:21:36;20;;;13;;
15506;SDS011;7855;52.210;5.982;2022-08-16T07:23:50;18;;;13;;
15506;SDS011;7855;52.210;5.982;2022-08-16T07:26:05;18;;;11;;
15506;SDS011;7855;52.210;5.982;2022-08-16T07:28:19;26;;;14;;
15506;SDS011;7855;52.210;5.982;2022-08-16T07:30:34;15;;;12;;
15506;SDS011;7855;52.210;5.982;2022-08-16T07:32:48;19;;;12;;
15506;SDS011;7855;52.210;5.982;2022-08-16T07:35:03;16;;;9;;
15506;SDS011;7855;52.210;5.982;2022-08-16T07:37:17;15;;;10;;
15506;SDS011;7855;52.210;5.982;2022-08-16T07:39:31;12;;;9;;
15506;SDS011;7855;52.210;5.982;2022-08-16T07:41:46;13;;;10;;
15506;SDS011;7855;52.210;5.982;2022-08-16T07:44:00;14;;;9;;
15506;SDS011;7855;52.210;5.982;2022-08-16T07:46:15;13;;;9;;
15506;SDS011;7855;52.210;5.982;2022-08-16T07:48:29;16;;;9;;
15506;SDS011;7855;52.210;5.982;2022-08-16T07:50:44;14;;;9;;
15506;SDS011;7855;52.210;5.982;2022-08-16T07:52:58;14;;;8;;
15506;SDS011;7855;52.210;5.982;2022-08-16T07:55:13;13;;;9;;
15506;SDS011;7855;52.210;5.982;2022-08-16T07:57:27;12;;;8;;
15506;SDS011;7855;52.210;5.982;2022-08-16T07:59:41;16;;;8;;
15506;SDS011;7855;52.210;5.982;2022-08-16T08:01:56;11;;;7;;
15506;SDS011;7855;52.210;5.982;2022-08-16T08:04:10;10;;;6;;
15506;SDS011;7855;52.210;5.982;2022-08-16T08:06:26;11;;;5;;
15506;SDS011;7855;52.210;5.982;2022-08-16T08:08:39;11;;;5;;
15506;SDS011;7855;52.210;5.982;2022-08-16T08:10:54;10;;;5;;
15506;SDS011;7855;52.210;5.982;2022-08-16T08:13:08;16;;;5;;
15506;SDS011;7855;52.210;5.982;2022-08-16T08:15:23;11;;;5;;
15506;SDS011;7855;52.210;5.982;2022-08-16T08:17:37;11;;;5;;
15506;SDS011;7855;52.210;5.982;2022-08-16T08:19:51;11;;;4;;
15506;SDS011;7855;52.210;5.982;2022-08-16T08:22:06;10;;;6;;
15506;SDS011;7855;52.210;5.982;2022-08-16T08:24:21;8;;;5;;
15506;SDS011;7855;52.210;5.982;2022-08-16T08:26:35;10;;;5;;
15506;SDS011;7855;52.210;5.982;2022-08-16T08:28:49;12;;;3;;
15506;SDS011;7855;52.210;5.982;2022-08-16T08:31:04;8;;;4;;
15506;SDS011;7855;52.210;5.982;2022-08-16T08:33:18;7;;;4;;
15506;SDS011;7855;52.210;5.982;2022-08-16T08:35:32;6;;;3;;
15506;SDS011;7855;52.210;5.982;2022-08-16T08:37:47;6;;;4;;
15506;SDS011;7855;52.210;5.982;2022-08-16T08:40:02;6;;;4;;
15506;SDS011;7855;52.210;5.982;2022-08-16T08:42:16;6;;;4;;
15506;SDS011;7855;52.210;5.982;2022-08-16T08:44:30;7;;;3;;
15506;SDS011;7855;52.210;5.982;2022-08-16T08:46:45;10;;;4;;
15506;SDS011;7855;52.210;5.982;2022-08-16T08:48:59;6;;;3;;
15506;SDS011;7855;52.210;5.982;2022-08-16T08:51:13;8;;;3;;
15506;SDS011;7855;52.210;5.982;2022-08-16T08:53:28;5;;;3;;
15506;SDS011;7855;52.210;5.982;2022-08-16T08:55:43;6;;;2;;
15506;SDS011;7855;52.210;5.982;2022-08-16T08:57:56;5;;;3;;
15506;SDS011;7855;52.210;5.982;2022-08-16T09:00:11;5;;;3;;
15506;SDS011;7855;52.210;5.982;2022-08-16T09:02:25;8;;;3;;
15506;SDS011;7855;52.210;5.982;2022-08-16T09:04:39;5;;;3;;
15506;SDS011;7855;52.210;5.982;2022-08-16T09:06:54;4;;;3;;
15506;SDS011;7855;52.210;5.982;2022-08-16T09:09:09;4;;;2;;
15506;SDS011;7855;52.210;5.982;2022-08-16T09:11:22;4;;;3;;
15506;SDS011;7855;52.210;5.982;2022-08-16T09:13:37;5;;;2;;
15506;SDS011;7855;52.210;5.982;2022-08-16T09:15:52;7;;;3;;
15506;SDS011;7855;52.210;5.982;2022-08-16T09:18:06;6;;;3;;
15506;SDS011;7855;52.210;5.982;2022-08-16T09:20:21;6;;;3;;
15506;SDS011;7855;52.210;5.982;2022-08-16T09:22:35;6;;;2;;
15506;SDS011;7855;52.210;5.982;2022-08-16T09:24:49;5;;;2;;
15506;SDS011;7855;52.210;5.982;2022-08-16T09:27:04;6;;;3;;
15506;SDS011;7855;52.210;5.982;2022-08-16T09:29:18;9;;;3;;
15506;SDS011;7855;52.210;5.982;2022-08-16T09:31:33;8;;;2;;
15506;SDS011;7855;52.210;5.982;2022-08-16T09:33:47;4;;;3;;
15506;SDS011;7855;52.210;5.982;2022-08-16T09:36:02;6;;;3;;
15506;SDS011;7855;52.210;5.982;2022-08-16T09:38:16;8;;;3;;
15506;SDS011;7855;52.210;5.982;2022-08-16T09:40:31;4;;;3;;
15506;SDS011;7855;52.210;5.982;2022-08-16T09:42:45;6;;;2;;
15506;SDS011;7855;52.210;5.982;2022-08-16T09:44:59;10;;;3;;
15506;SDS011;7855;52.210;5.982;2022-08-16T09:47:14;5;;;3;;
15506;SDS011;7855;52.210;5.982;2022-08-16T09:49:28;9;;;3;;
15506;SDS011;7855;52.210;5.982;2022-08-16T09:51:43;6;;;3;;
15506;SDS011;7855;52.210;5.982;2022-08-16T09:53:57;6;;;3;;
15506;SDS011;7855;52.210;5.982;2022-08-16T09:56:14;4;;;3;;
15506;SDS011;7855;52.210;5.982;2022-08-16T09:58:26;11;;;3;;
15506;SDS011;7855;52.210;5.982;2022-08-16T10:00:41;4;;;3;;
15506;SDS011;7855;52.210;5.982;2022-08-16T10:02:55;5;;;3;;
15506;SDS011;7855;52.210;5.982;2022-08-16T10:05:09;9;;;3;;
15506;SDS011;7855;52.210;5.982;2022-08-16T10:07:25;8;;;3;;
15506;SDS011;7855;52.210;5.982;2022-08-16T10:09:40;6;;;2;;
15506;SDS011;7855;52.210;5.982;2022-08-16T10:11:53;6;;;2;;
15506;SDS011;7855;52.210;5.982;2022-08-16T10:14:07;5;;;3;;
15506;SDS011;7855;52.210;5.982;2022-08-16T10:16:22;4;;;3;;
15506;SDS011;7855;52.210;5.982;2022-08-16T10:18:36;10;;;2;;
15506;SDS011;7855;52.210;5.982;2022-08-16T10:20:51;6;;;3;;
15506;SDS011;7855;52.210;5.982;2022-08-16T10:23:06;7;;;2;;
15506;SDS011;7855;52.210;5.982;2022-08-16T10:25:19;5;;;3;;
15506;SDS011;7855;52.210;5.982;2022-08-16T10:27:34;12;;;4;;
15506;SDS011;7855;52.210;5.982;2022-08-16T10:29:48;5;;;3;;
15506;SDS011;7855;52.210;5.982;2022-08-16T10:32:03;7;;;3;;
15506;SDS011;7855;52.210;5.982;2022-08-16T10:34:17;4;;;3;;
15506;SDS011;7855;52.210;5.982;2022-08-16T10:36:32;9;;;4;;
15506;SDS011;7855;52.210;5.982;2022-08-16T10:38:46;6;;;3;;
15506;SDS011;7855;52.210;5.982;2022-08-16T10:41:01;11;;;4;;
15506;SDS011;7855;52.210;5.982;2022-08-16T10:43:15;8;;;3;;
15506;SDS011;7855;52.210;5.982;2022-08-16T10:45:29;6;;;3;;
15506;SDS011;7855;52.210;5.982;2022-08-16T10:47:44;8;;;3;;
15506;SDS011;7855;52.210;5.982;2022-08-16T10:49:58;10;;;3;;
15506;SDS011;7855;52.210;5.982;2022-08-16T10:52:13;6;;;4;;
15506;SDS011;7855;52.210;5.982;2022-08-16T10:54:27;23;;;5;;
15506;SDS011;7855;52.210;5.982;2022-08-16T10:56:42;12;;;4;;
15506;SDS011;7855;52.210;5.982;2022-08-16T10:58:56;6;;;4;;
15506;SDS011;7855;52.210;5.982;2022-08-16T11:01:11;8;;;4;;
15506;SDS011;7855;52.210;5.982;2022-08-16T11:03:25;7;;;4;;
15506;SDS011;7855;52.210;5.982;2022-08-16T11:05:40;7;;;4;;
15506;SDS011;7855;52.210;5.982;2022-08-16T11:07:54;9;;;4;;
15506;SDS011;7855;52.210;5.982;2022-08-16T11:10:09;9;;;4;;
15506;SDS011;7855;52.210;5.982;2022-08-16T11:12:23;8;;;4;;
15506;SDS011;7855;52.210;5.982;2022-08-16T11:14:37;13;;;5;;
15506;SDS011;7855;52.210;5.982;2022-08-16T11:16:51;7;;;5;;
15506;SDS011;7855;52.210;5.982;2022-08-16T11:19:06;6;;;5;;
15506;SDS011;7855;52.210;5.982;2022-08-16T11:21:20;9;;;4;;
15506;SDS011;7855;52.210;5.982;2022-08-16T11:23:34;7;;;4;;
15506;SDS011;7855;52.210;5.982;2022-08-16T11:25:49;6;;;3;;
15506;SDS011;7855;52.210;5.982;2022-08-16T11:28:03;11;;;4;;
15506;SDS011;7855;52.210;5.982;2022-08-16T11:30:17;9;;;4;;
15506;SDS011;7855;52.210;5.982;2022-08-16T11:32:32;10;;;4;;
15506;SDS011;7855;52.210;5.982;2022-08-16T11:34:46;9;;;4;;
15506;SDS011;7855;52.210;5.982;2022-08-16T11:37:01;12;;;3;;
15506;SDS011;7855;52.210;5.982;2022-08-16T11:39:15;7;;;3;;
15506;SDS011;7855;52.210;5.982;2022-08-16T11:41:30;8;;;3;;
15506;SDS011;7855;52.210;5.982;2022-08-16T11:43:44;7;;;3;;
15506;SDS011;7855;52.210;5.982;2022-08-16T11:46:00;6;;;3;;
15506;SDS011;7855;52.210;5.982;2022-08-16T11:48:13;6;;;3;;
15506;SDS011;7855;52.210;5.982;2022-08-16T11:50:28;5;;;3;;
15506;SDS011;7855;52.210;5.982;2022-08-16T11:52:42;7;;;3;;
15506;SDS011;7855;52.210;5.982;2022-08-16T11:54:57;10;;;3;;
15506;SDS011;7855;52.210;5.982;2022-08-16T11:57:11;8;;;3;;
15506;SDS011;7855;52.210;5.982;2022-08-16T11:59:25;16;;;3;;
15506;SDS011;7855;52.210;5.982;2022-08-16T12:01:40;5;;;3;;
15506;SDS011;7855;52.210;5.982;2022-08-16T12:03:54;5;;;3;;
15506;SDS011;7855;52.210;5.982;2022-08-16T12:06:10;13;;;3;;
15506;SDS011;7855;52.210;5.982;2022-08-16T12:08:23;5;;;3;;
15506;SDS011;7855;52.210;5.982;2022-08-16T12:10:39;12;;;3;;
15506;SDS011;7855;52.210;5.982;2022-08-16T12:12:52;11;;;2;;
15506;SDS011;7855;52.210;5.982;2022-08-16T12:15:07;5;;;3;;
15506;SDS011;7855;52.210;5.982;2022-08-16T12:17:21;6;;;3;;
15506;SDS011;7855;52.210;5.982;2022-08-16T12:19:36;10;;;3;;
15506;SDS011;7855;52.210;5.982;2022-08-16T12:21:50;7;;;2;;
15506;SDS011;7855;52.210;5.982;2022-08-16T12:24:04;11;;;2;;
15506;SDS011;7855;52.210;5.982;2022-08-16T12:26:18;10;;;2;;
15506;SDS011;7855;52.210;5.982;2022-08-16T12:28:33;13;;;3;;
15506;SDS011;7855;52.210;5.982;2022-08-16T12:30:48;13;;;4;;
15506;SDS011;7855;52.210;5.982;2022-08-16T12:33:03;8;;;3;;
15506;SDS011;7855;52.210;5.982;2022-08-16T12:35:19;4;;;2;;
15506;SDS011;7855;52.210;5.982;2022-08-16T12:37:31;6;;;3;;
15506;SDS011;7855;52.210;5.982;2022-08-16T12:39:46;6;;;3;;
15506;SDS011;7855;52.210;5.982;2022-08-16T12:42:00;5;;;3;;
15506;SDS011;7855;52.210;5.982;2022-08-16T12:44:14;4;;;2;;
15506;SDS011;7855;52.210;5.982;2022-08-16T12:46:29;5;;;3;;
15506;SDS011;7855;52.210;5.982;2022-08-16T12:48:43;5;;;3;;
15506;SDS011;7855;52.210;5.982;2022-08-16T12:50:58;6;;;3;;
15506;SDS011;7855;52.210;5.982;2022-08-16T12:53:12;8;;;3;;
15506;SDS011;7855;52.210;5.982;2022-08-16T12:55:27;6;;;3;;
15506;SDS011;7855;52.210;5.982;2022-08-16T12:57:41;9;;;3;;
15506;SDS011;7855;52.210;5.982;2022-08-16T12:59:56;4;;;3;;
15506;SDS011;7855;52.210;5.982;2022-08-16T13:02:10;8;;;3;;
15506;SDS011;7855;52.210;5.982;2022-08-16T13:04:25;5;;;3;;
15506;SDS011;7855;52.210;5.982;2022-08-16T13:06:39;8;;;3;;
15506;SDS011;7855;52.210;5.982;2022-08-16T13:08:54;5;;;2;;
15506;SDS011;7855;52.210;5.982;2022-08-16T13:13:23;9;;;3;;
15506;SDS011;7855;52.210;5.982;2022-08-16T13:15:37;13;;;5;;
15506;SDS011;7855;52.210;5.982;2022-08-16T13:17:51;6;;;3;;
15506;SDS011;7855;52.210;5.982;2022-08-16T13:20:07;4;;;3;;
15506;SDS011;7855;52.210;5.982;2022-08-16T13:22:22;14;;;4;;
15506;SDS011;7855;52.210;5.982;2022-08-16T13:24:35;11;;;4;;
15506;SDS011;7855;52.210;5.982;2022-08-16T13:26:49;12;;;4;;
15506;SDS011;7855;52.210;5.982;2022-08-16T13:29:03;10;;;4;;
15506;SDS011;7855;52.210;5.982;2022-08-16T13:31:18;7;;;3;;
15506;SDS011;7855;52.210;5.982;2022-08-16T13:33:33;8;;;4;;
15506;SDS011;7855;52.210;5.982;2022-08-16T13:35:48;5;;;4;;
15506;SDS011;7855;52.210;5.982;2022-08-16T13:38:01;5;;;3;;
15506;SDS011;7855;52.210;5.982;2022-08-16T13:40:16;9;;;3;;
15506;SDS011;7855;52.210;5.982;2022-08-16T13:42:30;6;;;3;;
15506;SDS011;7855;52.210;5.982;2022-08-16T13:44:43;6;;;3;;
15506;SDS011;7855;52.210;5.982;2022-08-16T13:46:58;12;;;3;;
15506;SDS011;7855;52.210;5.982;2022-08-16T13:49:12;10;;;3;;
15506;SDS011;7855;52.210;5.982;2022-08-16T13:51:27;7;;;4;;
15506;SDS011;7855;52.210;5.982;2022-08-16T13:53:41;7;;;3;;
15506;SDS011;7855;52.210;5.982;2022-08-16T13:55:56;9;;;5;;
15506;SDS011;7855;52.210;5.982;2022-08-16T13:58:10;10;;;4;;
15506;SDS011;7855;52.210;5.982;2022-08-16T14:00:25;6;;;4;;
15506;SDS011;7855;52.210;5.982;2022-08-16T14:02:39;7;;;3;;
15506;SDS011;7855;52.210;5.982;2022-08-16T14:04:53;4;;;2;;
15506;SDS011;7855;52.210;5.982;2022-08-16T14:07:08;10;;;2;;
15506;SDS011;7855;52.210;5.982;2022-08-16T14:09:22;4;;;2;;
15506;SDS011;7855;52.210;5.982;2022-08-16T14:11:36;10;;;3;;
15506;SDS011;7855;52.210;5.982;2022-08-16T14:13:50;9;;;4;;
15506;SDS011;7855;52.210;5.982;2022-08-16T14:16:05;4;;;3;;
15506;SDS011;7855;52.210;5.982;2022-08-16T14:18:19;6;;;3;;
15506;SDS011;7855;52.210;5.982;2022-08-16T14:20:34;10;;;3;;
15506;SDS011;7855;52.210;5.982;2022-08-16T14:22:48;13;;;4;;
15506;SDS011;7855;52.210;5.982;2022-08-16T14:25:05;10;;;4;;
15506;SDS011;7855;52.210;5.982;2022-08-16T14:27:18;11;;;3;;
15506;SDS011;7855;52.210;5.982;2022-08-16T14:29:32;12;;;4;;
15506;SDS011;7855;52.210;5.982;2022-08-16T14:31:46;6;;;3;;
15506;SDS011;7855;52.210;5.982;2022-08-16T14:34:01;7;;;4;;
15506;SDS011;7855;52.210;5.982;2022-08-16T14:36:15;8;;;4;;
15506;SDS011;7855;52.210;5.982;2022-08-16T14:38:29;9;;;4;;
15506;SDS011;7855;52.210;5.982;2022-08-16T14:40:44;9;;;3;;
15506;SDS011;7855;52.210;5.982;2022-08-16T14:42:58;9;;;5;;
15506;SDS011;7855;52.210;5.982;2022-08-16T14:45:14;5;;;3;;
15506;SDS011;7855;52.210;5.982;2022-08-16T14:47:27;11;;;3;;
15506;SDS011;7855;52.210;5.982;2022-08-16T14:49:42;14;;;4;;
15506;SDS011;7855;52.210;5.982;2022-08-16T14:51:58;5;;;3;;
15506;SDS011;7855;52.210;5.982;2022-08-16T14:54:11;10;;;3;;
15506;SDS011;7855;52.210;5.982;2022-08-16T14:56:25;6;;;3;;
15506;SDS011;7855;52.210;5.982;2022-08-16T14:58:39;9;;;5;;
15506;SDS011;7855;52.210;5.982;2022-08-16T15:00:54;6;;;4;;
15506;SDS011;7855;52.210;5.982;2022-08-16T15:03:08;6;;;4;;
15506;SDS011;7855;52.210;5.982;2022-08-16T15:05:24;6;;;3;;